Search for airport 
image banner adimage banner adimage banner ad
image banner ad

2CL6 - St John's Rgnl Medical Center

Located in Oxnard, United States

ICAO - 2CL6, IATA -

Data provided by Airmate  

General information

Coordinates: N34°12'60" W119°9'26"
Elevation is 76 feet MSL.
Magnetic variation is 14° East
View others Airports in California

Operational data

Special qualification required
Current time UTC:
Current local time:
Weather at : KOXR - Oxnard ( 5 km )
METAR: KOXR 141051Z 07004KT 10SM CLR 16/13 A2990 RMK AO2 SLP122 T01560133
TAF: KOXR 140929Z 1409/1506 VRB03KT P6SM SKC FM141800 27013KT P6SM SKC FM150300 29006KT P6SM SKC
View NOTAMs / SUP AIP / TFR affecting this airport [VIEW]
Communications frequencies: [VIEW]

Runways:

Airport contact information

Address: Oxnard United States

Satellite view of 2CL6